Time;durP1;ratioP1;P1;durP2;ratioP2;P2;SDS_P1;SDS_P2;PMS_P1;PMS_P2;Temp;Humidity;BMP_temperature;BMP_pressure;BME280_temperature;BME280_humidity;BME280_pressure;Samples;Min_cycle;Max_cycle;Signal;HPM_P1;HPM_P2
2021/09/22 00:02:17;;;;;;;11.05;7.28;;;;;;;7.05;93.33;100003.97;5023982;28;20025;-75
2021/09/22 00:04:42;;;;;;;10.38;7.13;;;;;;;7.14;94.62;100029.97;5031796;28;20018;-75
2021/09/22 00:07:08;;;;;;;10.98;7.18;;;;;;;7.10;94.51;100025.03;5036059;28;20025;-74
2021/09/22 00:09:33;;;;;;;12.27;7.45;;;;;;;7.04;94.10;100026.47;5033963;28;20451;-73
2021/09/22 00:11:59;;;;;;;11.00;7.70;;;;;;;6.93;94.77;100019.47;5032698;28;20435;-75
2021/09/22 00:14:25;;;;;;;10.98;7.32;;;;;;;6.96;94.81;100021.00;5018962;28;20025;-74
2021/09/22 00:16:50;;;;;;;10.80;6.82;;;;;;;6.92;94.87;99998.13;5017723;28;20025;-74
2021/09/22 00:19:16;;;;;;;11.73;7.30;;;;;;;7.04;93.77;100007.66;5033112;28;20549;-75
2021/09/22 00:21:41;;;;;;;10.23;7.00;;;;;;;6.94;93.72;100007.72;5035143;28;20063;-75
2021/09/22 00:24:06;;;;;;;10.55;7.05;;;;;;;6.89;94.50;99988.50;5034771;28;20426;-74
2021/09/22 00:26:32;;;;;;;9.57;6.60;;;;;;;6.98;94.16;100002.88;5034038;28;20661;-73
2021/09/22 00:28:57;;;;;;;9.90;7.22;;;;;;;6.91;92.93;100002.63;5027639;28;20471;-73
2021/09/22 00:31:22;;;;;;;11.77;7.82;;;;;;;6.87;94.27;99984.25;5030655;28;20041;-75
2021/09/22 00:33:48;;;;;;;11.07;7.38;;;;;;;6.93;94.93;100000.63;5034011;28;20022;-74
2021/09/22 00:36:14;;;;;;;11.85;7.72;;;;;;;6.80;95.05;99992.06;5017909;28;20026;-75
2021/09/22 00:38:39;;;;;;;11.55;8.10;;;;;;;6.78;95.05;99980.59;5028242;28;20475;-75
2021/09/22 00:41:05;;;;;;;12.82;8.07;;;;;;;6.90;95.52;100016.25;5034693;28;20033;-73
2021/09/22 00:43:30;;;;;;;12.07;8.10;;;;;;;6.87;95.79;100000.41;5034480;28;20033;-74
2021/09/22 00:46:04;;;;;;;12.23;7.80;;;;;;;6.87;95.10;100006.63;5020203;28;20112;-75
2021/09/22 00:48:31;;;;;;;14.55;7.68;;;;;;;6.89;95.26;100010.03;5015235;28;20041;-74
2021/09/22 00:50:56;;;;;;;14.25;7.60;;;;;;;6.75;95.95;99997.88;5015098;28;20657;-73
2021/09/22 00:53:22;;;;;;;11.23;7.95;;;;;;;6.72;94.88;99990.13;5032777;28;20021;-74
2021/09/22 00:55:48;;;;;;;13.20;7.97;;;;;;;6.57;95.64;99964.72;5034307;28;20116;-74
2021/09/22 00:58:13;;;;;;;9.93;7.22;;;;;;;6.76;95.21;100009.53;5019537;28;20427;-74
2021/09/22 01:00:39;;;;;;;12.10;7.20;;;;;;;6.66;95.73;100003.34;5027225;28;20029;-74
2021/09/22 01:03:05;;;;;;;11.60;7.80;;;;;;;6.49;96.05;99991.50;5033808;28;20103;-75
2021/09/22 01:05:32;;;;;;;12.82;7.72;;;;;;;6.38;96.43;99987.16;5027816;28;20029;-75
2021/09/22 01:07:59;;;;;;;18.45;9.68;;;;;;;6.56;97.28;99992.63;5015328;28;20041;-74
2021/09/22 01:10:24;;;;;;;11.95;7.60;;;;;;;6.56;97.05;100016.81;5014632;28;20402;-73
2021/09/22 01:12:50;;;;;;;12.15;7.88;;;;;;;6.59;97.43;100011.97;5012738;28;20014;-74
2021/09/22 01:15:33;;;;;;;13.88;7.47;;;;;;;6.40;96.67;99977.13;5024142;28;20476;-73
2021/09/22 01:17:59;;;;;;;13.20;8.18;;;;;;;6.48;96.80;100005.97;5013129;28;20412;-75
2021/09/22 01:20:29;;;;;;;14.32;8.25;;;;;;;6.47;97.30;100013.19;5015872;28;20029;-74
2021/09/22 01:22:59;;;;;;;13.70;8.57;;;;;;;6.45;97.43;100011.63;5014369;28;20062;-74
2021/09/22 01:25:25;;;;;;;14.18;7.78;;;;;;;6.47;98.25;100015.00;5032511;28;20060;-74
2021/09/22 01:27:53;;;;;;;13.73;8.55;;;;;;;6.41;97.56;100011.06;5032854;28;20022;-73
2021/09/22 01:30:19;;;;;;;12.77;7.45;;;;;;;6.47;96.29;100020.38;5033875;28;20033;-74
2021/09/22 01:32:57;;;;;;;11.35;7.10;;;;;;;6.42;95.96;100022.66;5032930;28;20391;-73
2021/09/22 01:35:23;;;;;;;11.90;8.18;;;;;;;6.24;96.13;99996.56;5024420;28;20517;-74
2021/09/22 01:37:49;;;;;;;11.88;7.75;;;;;;;6.16;96.73;99985.69;5033002;28;20061;-75
2021/09/22 01:40:16;;;;;;;11.95;7.78;;;;;;;6.15;97.53;99992.88;5033718;28;20044;-73
2021/09/22 01:42:41;;;;;;;17.50;8.38;;;;;;;6.19;97.88;100001.53;5032506;28;20454;-75
2021/09/22 01:45:09;;;;;;;15.25;8.73;;;;;;;6.30;98.02;100013.94;5242592;22;20464;-78
2021/09/22 01:47:34;;;;;;;12.23;8.20;;;;;;;6.22;98.62;100000.38;5014727;28;20468;-75
2021/09/22 01:50:09;;;;;;;12.40;8.10;;;;;;;6.23;98.62;100007.44;4997363;28;20048;-75
2021/09/22 01:52:35;;;;;;;11.82;7.88;;;;;;;6.39;97.53;100020.25;4994110;28;20026;-75
2021/09/22 01:55:01;;;;;;;12.35;7.72;;;;;;;6.28;97.18;100019.44;4995385;28;20014;-75
2021/09/22 01:57:26;;;;;;;12.82;7.75;;;;;;;6.20;97.03;100002.38;5002343;28;20033;-75
2021/09/22 01:59:52;;;;;;;13.82;8.13;;;;;;;6.29;98.23;100002.34;5007189;28;20049;-75
2021/09/22 02:02:17;;;;;;;11.40;7.53;;;;;;;6.40;97.21;99998.63;4994674;28;20030;-76
2021/09/22 02:04:43;;;;;;;11.80;7.60;;;;;;;6.36;96.29;99992.69;5009367;28;20109;-76
2021/09/22 02:07:09;;;;;;;11.38;7.57;;;;;;;6.36;96.10;99998.06;5007917;28;20030;-75
2021/09/22 02:09:34;;;;;;;10.07;7.25;;;;;;;6.28;96.26;100002.47;5002138;28;20033;-75
2021/09/22 02:11:59;;;;;;;12.52;6.82;;;;;;;6.24;95.82;99982.28;5005586;28;20041;-76
2021/09/22 02:14:24;;;;;;;12.85;7.35;;;;;;;6.28;95.17;99983.66;5002816;28;20026;-76
2021/09/22 02:16:50;;;;;;;10.85;7.10;;;;;;;6.41;94.94;99994.09;4992678;28;20022;-75
2021/09/22 02:19:15;;;;;;;9.90;6.47;;;;;;;6.43;94.62;100003.69;4994358;28;20041;-75
2021/09/22 02:21:40;;;;;;;10.82;7.32;;;;;;;6.23;95.85;99983.25;4993212;28;20034;-75
2021/09/22 02:24:06;;;;;;;12.25;6.22;;;;;;;6.20;95.93;99988.94;4992953;28;20033;-75
2021/09/22 02:26:31;;;;;;;11.73;7.65;;;;;;;6.08;96.61;99986.44;4994394;28;20041;-75
2021/09/22 02:28:56;;;;;;;12.15;8.52;;;;;;;6.02;96.51;99989.66;5014200;28;20025;-76
2021/09/22 02:31:22;;;;;;;10.40;7.47;;;;;;;5.91;96.75;99992.50;5015729;28;20022;-76
2021/09/22 02:33:47;;;;;;;11.75;7.95;;;;;;;5.92;98.30;99989.69;5007136;28;20029;-76
2021/09/22 02:36:13;;;;;;;10.45;7.25;;;;;;;5.86;98.14;99973.28;4994396;28;20112;-76
2021/09/22 02:38:38;;;;;;;12.27;7.50;;;;;;;5.80;98.14;99977.41;5014564;28;20042;-76
2021/09/22 02:41:03;;;;;;;14.88;8.10;;;;;;;5.76;98.61;99951.81;5032262;28;20118;-77
2021/09/22 02:43:29;;;;;;;14.68;8.02;;;;;;;5.83;97.88;99985.16;5017808;28;20018;-77
2021/09/22 02:45:54;;;;;;;10.52;7.05;;;;;;;5.86;98.10;99992.09;5019848;28;20045;-77
2021/09/22 02:48:19;;;;;;;10.73;7.13;;;;;;;5.85;98.26;99993.94;5033857;28;20030;-76
2021/09/22 02:50:45;;;;;;;10.85;7.72;;;;;;;5.85;98.14;99999.28;5034509;28;20025;-76
2021/09/22 02:53:10;;;;;;;12.40;7.80;;;;;;;5.73;98.03;99978.94;5021015;28;20036;-75
2021/09/22 02:55:35;;;;;;;11.60;7.53;;;;;;;5.80;98.37;99984.59;5007872;28;20105;-75
2021/09/22 02:58:01;;;;;;;12.95;8.02;;;;;;;5.82;98.59;99986.16;5012303;28;20034;-76
2021/09/22 03:00:26;;;;;;;12.60;8.30;;;;;;;5.74;98.43;99980.66;5013852;28;20110;-75
2021/09/22 03:02:51;;;;;;;12.85;8.18;;;;;;;5.70;98.57;99980.09;5012465;28;20049;-76
2021/09/22 03:05:17;;;;;;;16.60;8.45;;;;;;;5.78;98.86;99965.09;5006920;28;20035;-76
2021/09/22 03:07:42;;;;;;;14.30;8.45;;;;;;;5.83;98.58;99995.91;4995397;28;20033;-76
2021/09/22 03:10:08;;;;;;;13.38;8.13;;;;;;;5.68;98.15;99975.84;4994697;28;20033;-76
2021/09/22 03:12:33;;;;;;;13.43;7.88;;;;;;;5.76;98.68;99988.56;4993359;28;20572;-75
2021/09/22 03:14:59;;;;;;;13.68;7.72;;;;;;;5.59;99.09;99977.56;4993939;28;20030;-75
2021/09/22 03:17:25;;;;;;;13.43;8.82;;;;;;;5.56;99.64;99971.63;5004998;28;20030;-76
2021/09/22 03:19:51;;;;;;;11.52;8.07;;;;;;;5.53;99.21;99969.22;5011274;28;20026;-75
2021/09/22 03:22:17;;;;;;;14.15;8.38;;;;;;;5.77;100.00;100001.00;5013232;28;20052;-75
2021/09/22 03:24:42;;;;;;;14.45;9.43;;;;;;;5.61;100.00;99978.28;5013846;28;20026;-75
2021/09/22 03:27:07;;;;;;;16.20;10.20;;;;;;;5.66;100.00;99996.66;4995370;28;20109;-76
2021/09/22 03:29:33;;;;;;;16.35;9.82;;;;;;;5.56;100.00;99987.75;4993324;28;20476;-76
2021/09/22 03:31:58;;;;;;;18.00;10.05;;;;;;;5.58;100.00;100001.84;4989836;28;20037;-75
2021/09/22 03:34:23;;;;;;;16.23;9.52;;;;;;;5.68;100.00;100024.19;4985189;28;20039;-75
2021/09/22 03:36:49;;;;;;;16.42;8.82;;;;;;;5.67;100.00;100017.97;4985380;28;20018;-76
2021/09/22 03:39:14;;;;;;;15.35;9.35;;;;;;;5.47;100.00;100001.00;4988985;28;20518;-76
2021/09/22 03:41:39;;;;;;;16.98;9.05;;;;;;;5.61;99.88;100004.28;5013289;28;20483;-76
2021/09/22 03:44:05;;;;;;;12.63;8.40;;;;;;;5.62;99.50;100005.97;4999716;28;20058;-76
2021/09/22 03:46:30;;;;;;;15.02;8.52;;;;;;;5.60;99.69;100024.03;4978656;28;20224;-77
2021/09/22 03:48:55;;;;;;;16.45;9.00;;;;;;;5.58;99.51;100029.56;4986219;28;20058;-77
2021/09/22 03:51:21;;;;;;;15.13;8.95;;;;;;;5.64;99.80;100033.53;4975077;28;20031;-76
2021/09/22 03:53:46;;;;;;;14.82;8.75;;;;;;;5.61;100.00;100028.44;4989427;28;20114;-75
2021/09/22 03:56:11;;;;;;;13.40;8.77;;;;;;;5.39;99.61;100011.59;4994495;28;20121;-76
2021/09/22 03:58:37;;;;;;;13.70;9.18;;;;;;;5.53;100.00;100026.47;4979356;28;20022;-68
2021/09/22 04:01:02;;;;;;;14.40;8.35;;;;;;;5.49;100.00;100012.44;4982596;28;20080;-71
2021/09/22 04:03:28;;;;;;;14.05;8.15;;;;;;;5.45;100.00;100003.00;4973627;28;20396;-73
2021/09/22 04:05:53;;;;;;;14.48;9.27;;;;;;;5.44;100.00;100001.28;5006827;28;20045;-71
2021/09/22 04:08:18;;;;;;;14.30;8.05;;;;;;;5.48;100.00;100024.19;4988825;28;20069;-73
2021/09/22 04:10:44;;;;;;;12.88;8.23;;;;;;;5.41;99.35;99985.47;4982790;28;20030;-72
2021/09/22 04:13:09;;;;;;;13.73;7.80;;;;;;;5.48;98.82;100013.44;4986759;28;20026;-75
2021/09/22 04:15:34;;;;;;;13.63;8.23;;;;;;;5.32;99.06;99997.06;4984137;28;20034;-74
2021/09/22 04:18:00;;;;;;;12.82;7.43;;;;;;;5.34;99.57;100005.81;4993924;28;20035;-74
2021/09/22 04:20:25;;;;;;;12.55;7.82;;;;;;;5.26;99.64;100000.28;4998772;28;20032;-73
2021/09/22 04:22:51;;;;;;;13.82;8.20;;;;;;;5.42;100.00;100024.75;4994732;28;20030;-74
2021/09/22 04:25:16;;;;;;;12.05;8.02;;;;;;;5.45;100.00;100031.69;4987469;28;20045;-73
2021/09/22 04:27:41;;;;;;;16.40;8.48;;;;;;;5.38;100.00;100031.38;4977131;28;20035;-72
2021/09/22 04:30:08;;;;;;;16.27;9.13;;;;;;;5.33;100.00;100020.22;4974456;28;20048;-72
2021/09/22 04:32:33;;;;;;;14.52;8.65;;;;;;;5.26;100.00;100019.91;4990410;28;20041;-73
2021/09/22 04:34:59;;;;;;;15.77;9.80;;;;;;;5.32;100.00;100023.91;4987273;28;20018;-71
2021/09/22 04:37:24;;;;;;;18.63;9.82;;;;;;;5.32;100.00;100018.53;4988633;28;20038;-70
2021/09/22 04:39:52;;;;;;;14.70;9.27;;;;;;;5.07;100.00;99994.91;4992781;28;20030;-71
2021/09/22 04:42:17;;;;;;;16.35;9.48;;;;;;;5.37;100.00;100021.66;4992084;28;20030;-71
2021/09/22 04:44:43;;;;;;;15.77;9.20;;;;;;;5.36;100.00;100016.41;4987901;28;20023;-70
2021/09/22 04:47:10;;;;;;;15.10;8.90;;;;;;;5.31;100.00;100013.28;4984852;28;20038;-73
2021/09/22 04:49:36;;;;;;;12.18;8.10;;;;;;;5.26;100.00;100021.75;4996446;28;20048;-74
2021/09/22 04:52:02;;;;;;;13.63;8.45;;;;;;;5.15;100.00;100024.56;4994424;28;20034;-73
2021/09/22 04:54:27;;;;;;;20.23;9.68;;;;;;;5.15;100.00;100009.31;5011646;28;20057;-72
2021/09/22 04:56:53;;;;;;;17.88;9.32;;;;;;;5.35;100.00;100022.78;5001090;28;20034;-72
2021/09/22 04:59:18;;;;;;;14.95;8.63;;;;;;;5.27;100.00;100020.78;4994476;28;20173;-72
2021/09/22 05:01:46;;;;;;;14.90;8.27;;;;;;;5.28;100.00;100026.00;4990387;28;20480;-72
2021/09/22 05:04:12;;;;;;;14.02;8.02;;;;;;;5.17;100.00;100031.50;4993643;28;20080;-72
2021/09/22 05:06:37;;;;;;;13.73;8.15;;;;;;;5.06;100.00;100018.22;4996653;28;20388;-74
2021/09/22 05:09:02;;;;;;;14.30;8.07;;;;;;;5.22;100.00;100029.25;4995762;28;20027;-74
2021/09/22 05:11:28;;;;;;;12.02;8.07;;;;;;;5.26;100.00;100011.03;5014959;28;20026;-74
2021/09/22 05:13:53;;;;;;;14.75;8.15;;;;;;;5.32;99.84;100014.97;4994300;28;20423;-74
2021/09/22 05:16:18;;;;;;;12.38;7.80;;;;;;;5.20;99.76;100012.44;4995652;28;20023;-74
2021/09/22 05:18:44;;;;;;;16.83;8.98;;;;;;;5.31;100.00;100029.41;5000665;28;20122;-74
2021/09/22 05:21:09;;;;;;;14.90;8.85;;;;;;;5.30;100.00;100025.88;4978901;28;20085;-75
2021/09/22 05:23:34;;;;;;;14.02;9.13;;;;;;;5.35;100.00;100017.41;4993467;28;20050;-74
2021/09/22 05:26:00;;;;;;;15.55;8.60;;;;;;;5.51;100.00;100038.31;5000271;28;20038;-74
2021/09/22 05:28:25;;;;;;;11.80;7.55;;;;;;;5.59;99.37;100036.63;5002708;28;20041;-72
2021/09/22 05:30:51;;;;;;;12.55;7.60;;;;;;;5.60;98.19;100032.09;4988702;28;20035;-73
2021/09/22 05:33:16;;;;;;;11.63;7.55;;;;;;;5.72;97.55;100037.19;4984123;28;20054;-73
2021/09/22 05:35:41;;;;;;;10.68;6.97;;;;;;;5.81;96.40;100046.22;4978658;28;20115;-72
2021/09/22 05:38:06;;;;;;;18.15;7.53;;;;;;;5.88;95.84;100028.53;4983467;28;20084;-73
2021/09/22 05:40:33;;;;;;;12.95;8.32;;;;;;;6.21;94.93;100047.03;4991494;28;20072;-76
2021/09/22 05:42:58;;;;;;;13.75;8.27;;;;;;;6.19;93.85;100023.03;4986810;28;20054;-76
2021/09/22 05:45:24;;;;;;;15.00;8.27;;;;;;;6.42;92.39;100049.53;5007107;28;20038;-75
2021/09/22 05:47:49;;;;;;;13.20;7.78;;;;;;;6.75;92.02;100040.94;4986627;28;20041;-75
2021/09/22 05:50:15;;;;;;;13.10;8.57;;;;;;;7.18;89.81;100055.59;4987194;28;20644;-74
2021/09/22 05:52:40;;;;;;;19.80;7.88;;;;;;;7.43;87.58;100053.16;4974694;28;20050;-68
2021/09/22 05:55:06;;;;;;;13.38;7.47;;;;;;;7.62;85.42;100050.34;4981589;28;20030;-69
2021/09/22 05:57:31;;;;;;;15.80;7.43;;;;;;;8.06;83.65;100036.88;4976382;28;20069;-69
2021/09/22 05:59:56;;;;;;;10.25;7.10;;;;;;;8.72;79.64;100048.13;4994038;28;20034;-68
2021/09/22 06:02:22;;;;;;;15.27;7.78;;;;;;;9.40;77.88;100050.72;4993066;28;20097;-69
2021/09/22 06:04:47;;;;;;;13.82;7.60;;;;;;;9.96;74.84;100034.78;4993953;28;20030;-75
2021/09/22 06:07:13;;;;;;;11.25;7.18;;;;;;;10.69;72.70;100023.03;4978369;28;20031;-69
2021/09/22 06:09:38;;;;;;;14.00;6.90;;;;;;;11.09;70.11;100021.16;4974379;28;20030;-67
2021/09/22 06:12:04;;;;;;;13.63;7.72;;;;;;;11.33;69.19;100024.75;4992995;28;20038;-75
2021/09/22 06:14:29;;;;;;;10.77;6.68;;;;;;;11.67;67.75;100026.25;5009459;28;20033;-72
2021/09/22 06:16:54;;;;;;;13.23;7.13;;;;;;;12.03;66.61;100024.63;5007811;28;20033;-72
2021/09/22 06:19:19;;;;;;;11.63;5.88;;;;;;;12.58;64.11;100014.44;4992438;28;20030;-72
2021/09/22 06:21:45;;;;;;;11.88;6.30;;;;;;;13.03;62.32;100023.38;4980608;28;20050;-72
2021/09/22 06:24:10;;;;;;;9.75;6.40;;;;;;;13.63;60.70;100012.41;4991615;28;20026;-72
2021/09/22 06:26:35;;;;;;;11.45;6.07;;;;;;;13.88;59.56;100031.88;4992151;28;20062;-72
2021/09/22 06:29:01;;;;;;;9.27;6.68;;;;;;;14.42;58.47;100014.97;4992899;28;20713;-72
2021/09/22 06:31:26;;;;;;;15.40;6.75;;;;;;;14.50;57.72;100012.09;4990292;28;20089;-72
2021/09/22 06:33:51;;;;;;;10.40;6.25;;;;;;;14.72;56.94;100022.94;4982207;28;20019;-72
2021/09/22 06:36:17;;;;;;;10.82;6.60;;;;;;;15.50;55.19;100018.88;4987896;28;20078;-72
2021/09/22 06:38:42;;;;;;;13.93;7.63;;;;;;;15.21;55.54;100027.38;4978786;28;20480;-72
2021/09/22 06:41:08;;;;;;;9.55;6.93;;;;;;;15.04;54.96;100007.81;4982941;28;20113;-72
2021/09/22 06:43:33;;;;;;;15.02;7.25;;;;;;;15.55;53.19;100018.25;4993711;28;20085;-72
2021/09/22 06:45:59;;;;;;;23.33;7.88;;;;;;;15.78;53.25;100037.03;4979198;28;20118;-72
2021/09/22 06:48:25;;;;;;;16.13;7.25;;;;;;;16.24;52.93;100033.47;4989642;28;20027;-72
2021/09/22 06:50:50;;;;;;;15.85;6.63;;;;;;;16.55;51.43;100029.28;4988498;28;20030;-71
2021/09/22 06:53:15;;;;;;;13.80;6.85;;;;;;;16.69;51.40;100041.00;4974331;28;20106;-69
2021/09/22 06:55:41;;;;;;;13.70;6.80;;;;;;;16.63;51.48;100043.53;4975848;28;20031;-69
2021/09/22 06:58:06;;;;;;;10.30;6.90;;;;;;;16.16;53.30;100048.19;4990602;28;20084;-69
2021/09/22 07:00:37;;;;;;;11.75;6.88;;;;;;;16.60;52.46;100032.22;4993075;28;20040;-69
2021/09/22 07:03:09;;;;;;;11.00;6.10;;;;;;;16.89;51.89;100044.56;4988286;28;20331;-70
2021/09/22 07:05:35;;;;;;;10.10;5.75;;;;;;;17.28;50.01;100050.97;4992710;28;20037;-69
2021/09/22 07:08:00;;;;;;;10.32;6.43;;;;;;;17.00;51.51;100043.06;4983674;28;20023;-70
2021/09/22 07:10:27;;;;;;;9.23;5.88;;;;;;;16.91;50.49;100045.22;4980421;28;20073;-70
2021/09/22 07:12:53;;;;;;;8.32;6.35;;;;;;;17.49;49.66;100039.72;4980581;28;20031;-70
2021/09/22 07:15:18;;;;;;;9.68;6.63;;;;;;;17.49;49.50;100047.94;4982532;28;20026;-70
2021/09/22 07:17:43;;;;;;;11.55;6.90;;;;;;;18.24;47.77;100043.72;4984360;28;20018;-70
2021/09/22 07:20:09;;;;;;;10.63;6.63;;;;;;;17.53;49.84;100034.66;4981297;28;20031;-70
2021/09/22 07:22:35;;;;;;;8.57;6.50;;;;;;;18.12;47.29;100035.34;4980629;28;20058;-69
2021/09/22 07:25:00;;;;;;;10.55;7.72;;;;;;;18.12;47.52;100047.16;4990647;28;20398;-69
2021/09/22 07:27:26;;;;;;;9.82;7.18;;;;;;;17.77;47.79;100046.75;4988422;28;20545;-69
2021/09/22 07:29:51;;;;;;;16.20;6.28;;;;;;;18.37;46.64;100044.44;4981063;28;20037;-69
2021/09/22 07:32:16;;;;;;;9.23;6.38;;;;;;;19.13;45.67;100030.63;4981018;28;20026;-69
2021/09/22 07:34:42;;;;;;;10.50;7.30;;;;;;;20.45;42.73;100046.25;4982270;28;20031;-69
2021/09/22 07:37:09;;;;;;;14.75;6.63;;;;;;;20.97;42.99;100050.00;4980168;28;20539;-67
2021/09/22 07:39:36;;;;;;;8.10;6.32;;;;;;;21.04;41.87;100047.13;4983685;28;20030;-75
2021/09/22 07:42:02;;;;;;;7.80;6.28;;;;;;;21.72;40.96;100029.00;4975806;28;20543;-70
2021/09/22 07:44:27;;;;;;;10.18;6.55;;;;;;;21.41;41.11;100044.91;5046873;23;20025;-68
2021/09/22 07:46:52;;;;;;;8.45;6.93;;;;;;;21.41;42.10;100049.56;4995942;28;20475;-68
2021/09/22 07:49:18;;;;;;;9.45;6.75;;;;;;;21.54;39.97;100045.72;5015471;28;20132;-68
2021/09/22 07:51:43;;;;;;;11.27;6.50;;;;;;;21.19;40.35;100038.34;5032284;28;20021;-69
2021/09/22 07:54:08;;;;;;;8.15;6.93;;;;;;;20.67;41.27;100047.38;5024332;28;20018;-69
2021/09/22 07:56:34;;;;;;;8.05;5.93;;;;;;;21.58;40.16;100049.63;5017254;28;20057;-69
2021/09/22 07:58:59;;;;;;;9.65;6.65;;;;;;;21.61;40.02;100033.47;5008816;28;20050;-69
2021/09/22 08:01:24;;;;;;;8.48;6.95;;;;;;;21.35;41.58;100045.84;5006846;28;20042;-70
2021/09/22 08:03:49;;;;;;;11.95;7.53;;;;;;;22.03;39.21;100030.38;5010660;28;20030;-75
2021/09/22 08:06:15;;;;;;;8.77;7.35;;;;;;;22.89;37.54;100030.09;5021390;28;20056;-71
2021/09/22 08:08:40;;;;;;;14.73;7.55;;;;;;;22.64;37.76;100033.31;5019981;28;20026;-71
2021/09/22 08:11:06;;;;;;;10.15;7.25;;;;;;;21.98;38.69;100024.78;5017746;28;20022;-71
2021/09/22 08:13:31;;;;;;;11.82;7.68;;;;;;;22.20;39.15;100032.34;5015440;28;20053;-70
2021/09/22 08:15:56;;;;;;;10.55;8.35;;;;;;;21.38;39.61;100036.31;5016239;28;20030;-70
2021/09/22 08:18:22;;;;;;;12.05;9.18;;;;;;;20.96;41.33;100036.50;5028490;28;20219;-68
2021/09/22 08:20:47;;;;;;;9.50;7.60;;;;;;;21.92;40.36;100038.69;5012173;28;20479;-71
2021/09/22 08:23:13;;;;;;;12.00;7.82;;;;;;;22.12;39.78;100041.81;5007206;28;20061;-73
2021/09/22 08:25:38;;;;;;;11.07;8.38;;;;;;;21.59;39.01;100016.34;5003814;28;20045;-72
2021/09/22 08:28:03;;;;;;;14.30;7.90;;;;;;;21.55;40.69;100045.44;5011603;28;20052;-72
2021/09/22 08:30:29;;;;;;;13.00;8.00;;;;;;;21.50;41.48;100031.56;5006368;28;20040;-72
2021/09/22 08:32:55;;;;;;;9.23;8.02;;;;;;;22.28;40.06;100027.25;5008430;28;20053;-72
2021/09/22 08:35:20;;;;;;;8.88;7.18;;;;;;;23.27;37.24;100031.19;5008478;28;20025;-72
2021/09/22 08:37:46;;;;;;;10.85;6.53;;;;;;;23.89;36.84;100040.19;5008955;28;20073;-72
2021/09/22 08:40:13;;;;;;;10.00;7.80;;;;;;;23.77;37.22;100035.66;5008924;28;20105;-71
2021/09/22 08:42:39;;;;;;;9.45;7.70;;;;;;;24.06;36.36;100027.09;5007275;28;20368;-72
2021/09/22 08:45:07;;;;;;;9.52;7.25;;;;;;;24.64;34.07;100047.50;5012455;28;20494;-73
2021/09/22 08:47:33;;;;;;;7.57;6.78;;;;;;;25.86;33.33;100048.38;5010564;28;20333;-73
2021/09/22 08:49:59;;;;;;;14.02;7.53;;;;;;;25.21;34.52;100040.41;5010748;28;20058;-73
2021/09/22 08:52:24;;;;;;;10.75;7.40;;;;;;;24.29;35.17;100045.28;5004584;28;20136;-72
2021/09/22 08:54:50;;;;;;;8.15;6.70;;;;;;;23.78;36.24;100044.78;5003191;28;20064;-72
2021/09/22 08:57:15;;;;;;;14.07;6.95;;;;;;;23.97;37.15;100045.25;5006264;28;20033;-72
2021/09/22 08:59:41;;;;;;;8.32;7.20;;;;;;;24.23;36.59;100021.41;5000301;28;20097;-72
2021/09/22 09:02:11;;;;;;;9.50;6.35;;;;;;;25.68;32.86;100041.41;5004336;28;20034;-72
2021/09/22 09:04:38;;;;;;;7.38;5.65;;;;;;;27.24;31.32;100026.13;5002910;28;20018;-70
2021/09/22 09:07:04;;;;;;;10.15;6.22;;;;;;;27.98;30.08;100021.56;5011647;28;20038;-73
2021/09/22 09:09:35;;;;;;;8.63;6.13;;;;;;;28.26;30.61;100033.88;5005272;28;20029;-72
2021/09/22 09:12:01;;;;;;;7.07;6.38;;;;;;;28.42;30.21;100031.78;5006944;28;20021;-73
2021/09/22 09:14:31;;;;;;;8.27;6.45;;;;;;;28.81;28.18;100014.19;5012993;28;20069;-73
2021/09/22 09:16:59;;;;;;;8.95;6.32;;;;;;;28.16;29.59;100029.25;5004807;28;20030;-73
2021/09/22 09:19:25;;;;;;;8.43;5.80;;;;;;;27.98;29.40;100016.00;5005487;28;21184;-74
2021/09/22 09:22:03;;;;;;;8.63;5.95;;;;;;;28.86;27.83;100024.44;5008160;28;20077;-72
2021/09/22 09:24:30;;;;;;;6.00;5.22;;;;;;;28.18;27.85;100018.63;5023272;28;20056;-73
2021/09/22 09:26:55;;;;;;;7.03;5.40;;;;;;;25.99;30.31;100026.53;5017051;28;20034;-73
2021/09/22 09:29:21;;;;;;;7.32;5.32;;;;;;;25.74;31.21;100007.88;5025600;28;20036;-72
2021/09/22 09:31:46;;;;;;;5.60;4.72;;;;;;;27.26;30.19;100021.13;5020369;28;20033;-72
2021/09/22 09:34:11;;;;;;;8.15;5.50;;;;;;;27.89;29.04;100018.56;5015023;28;20380;-72
2021/09/22 09:36:47;;;;;;;5.95;5.35;;;;;;;27.66;29.35;100020.06;5019824;28;20049;-72
2021/09/22 09:39:25;;;;;;;6.55;5.13;;;;;;;29.07;27.24;99997.22;5012414;28;20195;-73
2021/09/22 09:41:53;;;;;;;5.90;4.95;;;;;;;29.28;28.13;100001.41;5010061;28;20064;-72
2021/09/22 09:44:24;;;;;;;6.60;4.47;;;;;;;30.19;26.81;100000.38;5008210;28;20483;-73
2021/09/22 09:46:52;;;;;;;8.43;4.57;;;;;;;29.86;25.89;99992.78;5004264;28;20126;-72
2021/09/22 09:49:20;;;;;;;4.97;4.00;;;;;;;29.51;26.33;100001.66;5000390;28;20030;-71
2021/09/22 09:51:48;;;;;;;7.70;4.30;;;;;;;28.95;26.40;99992.88;5008470;28;20045;-72
2021/09/22 09:54:19;;;;;;;6.32;4.05;;;;;;;28.51;27.29;99979.16;5016888;28;20453;-73
2021/09/22 09:56:45;;;;;;;7.10;3.92;;;;;;;29.51;26.30;99987.72;5019196;28;20033;-72
2021/09/22 09:59:11;;;;;;;5.63;3.45;;;;;;;30.37;25.47;99985.56;4996328;28;20073;-74
2021/09/22 10:01:38;;;;;;;6.72;3.67;;;;;;;31.16;26.04;99979.03;5001820;28;20029;-71
2021/09/22 10:04:05;;;;;;;6.38;3.83;;;;;;;31.36;24.90;99977.75;5013445;28;20025;-70
2021/09/22 10:06:30;;;;;;;4.80;3.05;;;;;;;32.20;24.28;99962.38;5012863;28;20026;-71
2021/09/22 10:08:56;;;;;;;5.18;3.50;;;;;;;32.10;24.75;99966.28;5011128;28;20022;-70
2021/09/22 10:11:23;;;;;;;4.80;3.33;;;;;;;31.99;24.90;99971.31;5011838;28;20498;-71
2021/09/22 10:13:49;;;;;;;4.40;3.55;;;;;;;31.12;25.00;99962.03;5013772;28;20061;-71
2021/09/22 10:16:16;;;;;;;5.00;3.30;;;;;;;31.20;24.38;99955.75;5012706;28;20030;-71
2021/09/22 10:18:41;;;;;;;8.15;3.70;;;;;;;30.51;25.20;99946.50;5013408;28;20083;-71
2021/09/22 10:21:08;;;;;;;11.27;3.75;;;;;;;30.81;25.13;99950.66;5013598;28;20539;-71
2021/09/22 10:23:34;;;;;;;5.75;3.30;;;;;;;29.40;27.52;99953.59;5012472;28;20030;-71
2021/09/22 10:26:00;;;;;;;4.60;3.20;;;;;;;29.79;26.78;99942.16;5012963;28;20041;-71
2021/09/22 10:28:38;;;;;;;5.18;3.25;;;;;;;30.57;26.56;99945.25;5012887;28;20025;-71
2021/09/22 10:31:03;;;;;;;3.55;2.97;;;;;;;30.86;25.17;99944.16;5013501;28;20411;-71
2021/09/22 10:33:33;;;;;;;3.47;3.08;;;;;;;31.47;26.78;99948.47;5012781;28;20017;-71
2021/09/22 10:36:00;;;;;;;4.07;2.30;;;;;;;32.43;24.55;99929.56;5012839;28;20030;-70
2021/09/22 10:38:25;;;;;;;3.42;2.80;;;;;;;33.06;24.07;99922.75;5012046;28;20053;-71
2021/09/22 10:40:52;;;;;;;4.03;3.10;;;;;;;30.33;25.54;99940.66;5013031;28;20061;-71
2021/09/22 10:43:17;;;;;;;3.53;2.58;;;;;;;32.19;25.48;99933.56;5011473;28;20037;-71
2021/09/22 10:46:06;;;;;;;4.97;2.40;;;;;;;31.87;25.22;99941.06;5011446;28;20038;-71
2021/09/22 10:48:36;;;;;;;3.40;2.75;;;;;;;31.75;24.97;99945.56;5005585;28;20097;-71
2021/09/22 10:51:05;;;;;;;4.53;2.65;;;;;;;31.99;25.44;99940.53;5012670;28;20494;-72
2021/09/22 10:53:30;;;;;;;4.05;2.60;;;;;;;31.54;25.73;99937.66;5009000;28;20018;-69
2021/09/22 10:56:01;;;;;;;5.40;2.57;;;;;;;30.96;26.04;99938.34;5011627;28;20400;-69
2021/09/22 10:58:38;;;;;;;6.22;2.58;;;;;;;30.23;26.55;99943.63;5012141;28;20044;-70
2021/09/22 11:01:03;;;;;;;4.55;2.03;;;;;;;31.37;26.03;99920.69;5012764;28;20032;-74
2021/09/22 11:03:47;;;;;;;4.07;2.47;;;;;;;31.27;26.73;99926.53;5012206;28;20022;-75
2021/09/22 11:06:44;;;;;;;3.33;2.50;;;;;;;31.03;25.78;99922.00;5008263;28;20804;-74
2021/09/22 11:09:21;;;;;;;3.88;2.20;;;;;;;31.21;25.81;99915.44;5005891;28;20057;-73
2021/09/22 11:11:52;;;;;;;4.35;2.47;;;;;;;30.36;27.09;99916.88;5009861;28;20439;-76
2021/09/22 11:14:27;;;;;;;3.92;2.40;;;;;;;29.34;27.58;99919.34;5008946;28;20026;-74
2021/09/22 11:16:59;;;;;;;4.22;2.80;;;;;;;26.69;31.41;99912.16;5009378;28;20034;-73
2021/09/22 11:19:25;;;;;;;3.30;2.33;;;;;;;28.49;30.29;99907.03;5008563;28;20026;-74
2021/09/22 11:21:51;;;;;;;4.28;2.45;;;;;;;29.22;29.46;99917.03;5008845;28;20029;-74